createdAt,value
2018-01-14T00:00:26.830Z,5.19
2018-01-14T00:01:26.411Z,5.19
2018-01-14T00:02:26.678Z,5.18
2018-01-14T00:03:25.777Z,5.18
2018-01-14T00:04:26.149Z,5.18
2018-01-14T00:05:26.080Z,5.17
2018-01-14T00:06:26.159Z,5.15
2018-01-14T00:07:26.097Z,5.18
2018-01-14T00:08:26.532Z,5.16
2018-01-14T00:09:26.833Z,5.14
2018-01-14T00:10:26.423Z,5.13
2018-01-14T00:11:25.731Z,5.14
2018-01-14T00:12:26.037Z,5.13
2018-01-14T00:13:26.087Z,5.11
2018-01-14T00:14:26.310Z,5.11
2018-01-14T00:15:26.309Z,5.08
2018-01-14T00:16:26.228Z,5.08
2018-01-14T00:17:26.749Z,5.08
2018-01-14T00:18:26.637Z,5.04
2018-01-14T00:19:26.244Z,5.06
2018-01-14T00:20:26.313Z,5.02
2018-01-14T00:21:26.933Z,5.02
2018-01-14T00:22:26.173Z,5.01
2018-01-14T00:23:26.121Z,4.98
2018-01-14T00:24:26.039Z,4.98
2018-01-14T00:25:27.803Z,4.99
2018-01-14T00:26:26.587Z,4.96
2018-01-14T00:27:27.431Z,4.97
2018-01-14T00:28:25.936Z,4.94
2018-01-14T00:29:26.899Z,4.95
2018-01-14T00:30:26.444Z,4.93
2018-01-14T00:31:26.195Z,4.91
2018-01-14T00:32:26.636Z,4.91
2018-01-14T00:33:26.449Z,4.9
2018-01-14T00:34:28.338Z,4.88
2018-01-14T00:35:26.571Z,4.89
2018-01-14T00:36:26.280Z,4.89
2018-01-14T00:37:27.018Z,4.88
2018-01-14T00:38:26.990Z,4.87
2018-01-14T00:39:26.441Z,4.82
2018-01-14T00:40:26.730Z,4.86
2018-01-14T00:41:26.574Z,4.89
2018-01-14T00:42:26.281Z,4.9
2018-01-14T00:43:26.183Z,4.89
2018-01-14T00:44:25.918Z,4.89
2018-01-14T00:45:26.629Z,4.87
2018-01-14T00:46:26.583Z,4.88
2018-01-14T00:47:26.688Z,4.88
2018-01-14T00:48:26.804Z,4.88
2018-01-14T00:49:26.952Z,4.88
2018-01-14T00:50:26.646Z,4.85
2018-01-14T00:51:26.387Z,4.86
2018-01-14T00:52:26.517Z,4.83
2018-01-14T00:53:26.536Z,4.82
2018-01-14T00:54:26.830Z,4.8
2018-01-14T00:55:26.673Z,4.79
2018-01-14T00:56:26.649Z,4.83
2018-01-14T00:57:26.189Z,4.83
2018-01-14T00:58:26.436Z,4.85
2018-01-14T00:59:26.764Z,4.81
2018-01-14T01:00:26.787Z,4.83
2018-01-14T01:01:26.760Z,4.77
2018-01-14T01:02:26.382Z,4.75
2018-01-14T01:03:26.380Z,4.74
2018-01-14T01:04:26.365Z,4.71
2018-01-14T01:05:25.948Z,4.71
2018-01-14T01:06:26.544Z,4.71
2018-01-14T01:07:26.585Z,4.69
2018-01-14T01:08:26.503Z,4.69
2018-01-14T01:09:26.279Z,4.7
2018-01-14T01:10:26.416Z,4.7
2018-01-14T01:11:27.164Z,4.64
2018-01-14T01:12:26.383Z,4.66
2018-01-14T01:13:27.619Z,4.65
2018-01-14T01:14:27.096Z,4.65
2018-01-14T01:15:27.821Z,4.64
2018-01-14T01:16:26.446Z,4.66
2018-01-14T01:17:26.553Z,4.65
2018-01-14T01:18:25.740Z,4.63
2018-01-14T01:19:27.259Z,4.61
2018-01-14T01:20:26.147Z,4.59
2018-01-14T01:21:26.843Z,4.6
2018-01-14T01:22:26.477Z,4.59
2018-01-14T01:23:26.212Z,4.59
2018-01-14T01:24:26.948Z,4.59
2018-01-14T01:25:27.115Z,4.58
2018-01-14T01:26:26.811Z,4.57
2018-01-14T01:27:26.930Z,4.54
2018-01-14T01:28:26.107Z,4.56
2018-01-14T01:29:26.292Z,4.57
2018-01-14T01:30:27.871Z,4.52
2018-01-14T01:31:26.912Z,4.52
2018-01-14T01:32:26.331Z,4.51
2018-01-14T01:33:26.597Z,4.48
2018-01-14T01:34:27.137Z,4.48
2018-01-14T01:35:26.347Z,4.49
2018-01-14T01:36:26.650Z,4.48
2018-01-14T01:37:26.194Z,4.46
2018-01-14T01:38:26.851Z,4.5
2018-01-14T01:39:26.341Z,4.46
2018-01-14T01:40:26.305Z,4.46
2018-01-14T01:41:26.407Z,4.43
2018-01-14T01:42:26.268Z,4.43
2018-01-14T01:43:27.334Z,4.42
2018-01-14T01:44:26.643Z,4.4
2018-01-14T01:45:26.492Z,4.37
2018-01-14T01:46:27.359Z,4.39
2018-01-14T01:47:26.687Z,4.39
2018-01-14T01:48:26.900Z,4.38
2018-01-14T01:49:26.743Z,4.38
2018-01-14T01:50:26.056Z,4.38
2018-01-14T01:51:27.662Z,4.39
2018-01-14T01:52:26.323Z,4.36
2018-01-14T01:53:25.880Z,4.39
2018-01-14T01:54:26.994Z,4.36
2018-01-14T01:55:26.309Z,4.35
2018-01-14T01:56:27.539Z,4.35
2018-01-14T01:57:26.713Z,4.38
2018-01-14T01:58:26.494Z,4.38
2018-01-14T01:59:26.746Z,4.35
2018-01-14T02:00:26.316Z,4.35
2018-01-14T02:01:26.403Z,4.35
2018-01-14T02:02:26.257Z,4.34
2018-01-14T02:03:26.810Z,4.33
2018-01-14T02:04:27.020Z,4.32
2018-01-14T02:05:26.594Z,4.29
2018-01-14T02:06:25.936Z,4.33
2018-01-14T02:07:26.209Z,4.32
2018-01-14T02:08:26.728Z,4.33
2018-01-14T02:09:26.615Z,4.34
2018-01-14T02:10:26.268Z,4.34
2018-01-14T02:11:26.365Z,4.33
2018-01-14T02:12:25.951Z,4.31
2018-01-14T02:13:26.432Z,4.28
2018-01-14T02:14:27.430Z,4.27
2018-01-14T02:15:26.523Z,4.26
2018-01-14T02:16:25.915Z,4.23
2018-01-14T02:17:26.499Z,4.25
2018-01-14T02:18:26.430Z,4.22
2018-01-14T02:19:26.835Z,4.2
2018-01-14T02:20:26.894Z,4.17
2018-01-14T02:21:26.792Z,4.22
2018-01-14T02:22:26.573Z,4.19
2018-01-14T02:23:27.048Z,4.16
2018-01-14T02:24:26.534Z,4.16
2018-01-14T02:25:26.446Z,4.19
2018-01-14T02:26:27.109Z,4.14
2018-01-14T02:27:26.981Z,4.14
2018-01-14T02:28:26.430Z,4.13
2018-01-14T02:29:26.009Z,4.11
2018-01-14T02:30:27.231Z,4.12
2018-01-14T02:31:26.339Z,4.12
2018-01-14T02:32:26.518Z,4.08
2018-01-14T02:35:25.944Z,4.06
2018-01-14T02:36:26.802Z,4.05
2018-01-14T02:37:27.242Z,4.03
2018-01-14T02:38:25.758Z,4.03
2018-01-14T02:39:25.359Z,4.06
2018-01-14T02:40:25.859Z,4.04
2018-01-14T02:41:25.549Z,4.04
2018-01-14T02:42:25.382Z,4.07
2018-01-14T02:43:25.319Z,4.07
2018-01-14T02:44:25.439Z,4.07
2018-01-14T02:45:26.367Z,4.07
2018-01-14T02:46:25.389Z,4.02
2018-01-14T02:47:26.468Z,4
2018-01-14T02:48:25.854Z,4.01
2018-01-14T02:49:25.539Z,3.98
2018-01-14T02:50:25.236Z,4
2018-01-14T02:51:25.697Z,3.98
2018-01-14T02:52:26.021Z,3.96
2018-01-14T02:53:25.867Z,3.97
2018-01-14T02:54:26.638Z,3.98
2018-01-14T02:55:25.626Z,3.95
2018-01-14T02:56:25.840Z,3.94
2018-01-14T02:57:27.602Z,3.95
2018-01-14T02:58:25.873Z,3.95
2018-01-14T02:59:26.426Z,3.95
2018-01-14T03:00:26.804Z,3.95
2018-01-14T03:01:25.701Z,3.92
2018-01-14T03:02:25.701Z,3.95
2018-01-14T03:03:25.217Z,3.9
2018-01-14T03:04:25.491Z,3.89
2018-01-14T03:05:26.161Z,3.89
2018-01-14T03:06:26.624Z,3.88
2018-01-14T03:07:25.462Z,3.88
2018-01-14T03:08:25.109Z,3.89
2018-01-14T03:09:25.106Z,3.87
2018-01-14T03:10:25.776Z,3.85
2018-01-14T03:11:25.464Z,3.85
2018-01-14T03:12:25.890Z,3.84
2018-01-14T03:13:25.582Z,3.88
2018-01-14T03:14:26.972Z,3.88
2018-01-14T03:15:25.806Z,3.87
2018-01-14T03:16:26.062Z,3.87
2018-01-14T03:17:25.781Z,3.85
2018-01-14T03:18:27.060Z,3.86
2018-01-14T03:19:25.359Z,3.84
2018-01-14T03:20:26.079Z,3.85
2018-01-14T03:21:25.737Z,3.84
2018-01-14T03:22:25.867Z,3.84
2018-01-14T03:23:26.539Z,3.83
2018-01-14T03:24:25.393Z,3.86
2018-01-14T03:25:27.255Z,3.82
2018-01-14T03:26:26.364Z,3.79
2018-01-14T03:27:25.752Z,3.81
2018-01-14T03:28:27.062Z,3.8
2018-01-14T03:29:25.478Z,3.8
2018-01-14T03:30:25.821Z,3.73
2018-01-14T03:31:26.239Z,3.75
2018-01-14T03:32:26.918Z,3.74
2018-01-14T03:33:25.252Z,3.77
2018-01-14T03:34:25.547Z,3.76
2018-01-14T03:35:25.864Z,3.75
2018-01-14T03:36:25.441Z,3.73
2018-01-14T03:37:25.976Z,3.73
2018-01-14T03:38:25.695Z,3.76
2018-01-14T03:39:26.598Z,3.75
2018-01-14T03:40:25.784Z,3.74
2018-01-14T03:41:25.318Z,3.71
2018-01-14T03:42:25.730Z,3.7
2018-01-14T03:43:25.457Z,3.71
2018-01-14T03:44:25.937Z,3.71
2018-01-14T03:45:26.394Z,3.71
2018-01-14T03:46:26.709Z,3.7
2018-01-14T03:47:26.734Z,3.7
2018-01-14T03:48:27.021Z,3.69
2018-01-14T03:49:26.502Z,3.68
2018-01-14T03:50:25.980Z,3.67
2018-01-14T03:51:25.630Z,3.67
2018-01-14T03:52:25.584Z,3.69
2018-01-14T03:53:26.312Z,3.69
2018-01-14T03:54:26.020Z,3.62
2018-01-14T03:55:25.141Z,3.65
2018-01-14T03:56:26.523Z,3.63
2018-01-14T03:57:25.951Z,3.61
2018-01-14T03:58:26.196Z,3.58
2018-01-14T03:59:27.112Z,3.58
2018-01-14T04:00:27.691Z,3.56
2018-01-14T04:01:25.877Z,3.58
2018-01-14T04:02:26.079Z,3.58
2018-01-14T04:03:25.993Z,3.57
2018-01-14T04:04:25.635Z,3.58
2018-01-14T04:05:25.497Z,3.6
2018-01-14T04:06:26.130Z,3.58
2018-01-14T04:07:27.263Z,3.58
2018-01-14T04:08:25.709Z,3.61
2018-01-14T04:09:25.863Z,3.58
2018-01-14T04:10:25.992Z,3.59
2018-01-14T04:11:25.955Z,3.59
2018-01-14T04:12:26.425Z,3.58
2018-01-14T04:13:26.227Z,3.57
2018-01-14T04:14:26.590Z,3.61
2018-01-14T04:15:26.158Z,3.62
2018-01-14T04:16:25.623Z,3.6
2018-01-14T04:17:25.390Z,3.57
2018-01-14T04:18:25.498Z,3.57
2018-01-14T04:19:25.329Z,3.6
2018-01-14T04:20:25.278Z,3.58
2018-01-14T04:21:25.668Z,3.58
2018-01-14T04:22:25.383Z,3.57
2018-01-14T04:23:25.519Z,3.57
2018-01-14T04:24:25.508Z,3.56
2018-01-14T04:25:25.293Z,3.57
2018-01-14T04:26:25.461Z,3.57
2018-01-14T04:27:25.592Z,3.59
2018-01-14T04:28:25.424Z,3.57
2018-01-14T04:29:25.551Z,3.58
2018-01-14T04:30:25.514Z,3.57
2018-01-14T04:31:25.297Z,3.55
2018-01-14T04:32:25.456Z,3.55
2018-01-14T04:33:25.596Z,3.52
2018-01-14T04:34:25.548Z,3.55
2018-01-14T04:35:25.500Z,3.53
2018-01-14T04:36:25.713Z,3.53
2018-01-14T04:37:25.504Z,3.54
2018-01-14T04:38:25.519Z,3.52
2018-01-14T04:39:25.414Z,3.55
2018-01-14T04:40:25.283Z,3.57
2018-01-14T04:41:25.561Z,3.57
2018-01-14T04:42:25.338Z,3.56
2018-01-14T04:43:25.644Z,3.52
2018-01-14T04:44:25.626Z,3.56
2018-01-14T04:45:25.422Z,3.55
2018-01-14T04:46:25.459Z,3.53
2018-01-14T04:47:25.559Z,3.51
2018-01-14T04:48:25.622Z,3.51
2018-01-14T04:49:25.654Z,3.49
2018-01-14T04:50:25.408Z,3.49
2018-01-14T04:51:25.520Z,3.51
2018-01-14T04:52:25.618Z,3.52
2018-01-14T04:53:25.580Z,3.51
2018-01-14T04:54:25.478Z,3.52
2018-01-14T04:55:25.632Z,3.52
2018-01-14T04:56:25.314Z,3.51
2018-01-14T04:57:25.496Z,3.5
2018-01-14T04:58:25.439Z,3.51
2018-01-14T04:59:25.439Z,3.49
2018-01-14T05:00:25.479Z,3.47
2018-01-14T05:01:25.553Z,3.47
2018-01-14T05:02:25.617Z,3.47
2018-01-14T05:03:25.567Z,3.47
2018-01-14T05:04:25.632Z,3.5
2018-01-14T05:05:25.635Z,3.49
2018-01-14T05:06:25.656Z,3.49
2018-01-14T05:07:25.358Z,3.51
2018-01-14T05:08:25.237Z,3.5
2018-01-14T05:09:25.474Z,3.49
2018-01-14T05:10:25.569Z,3.47
2018-01-14T05:11:25.440Z,3.49
2018-01-14T05:12:25.512Z,3.46
2018-01-14T05:13:25.398Z,3.49
2018-01-14T05:14:25.595Z,3.49
2018-01-14T05:15:25.679Z,3.48
2018-01-14T05:16:25.474Z,3.47
2018-01-14T05:17:25.684Z,3.51
2018-01-14T05:18:25.677Z,3.52
2018-01-14T05:19:25.453Z,3.5
2018-01-14T05:20:25.296Z,3.51
2018-01-14T05:21:25.567Z,3.51
2018-01-14T05:22:25.616Z,3.55
2018-01-14T05:23:25.691Z,3.56
2018-01-14T05:24:25.618Z,3.51
2018-01-14T05:25:25.596Z,3.51
2018-01-14T05:26:25.375Z,3.48
2018-01-14T05:27:25.641Z,3.51
2018-01-14T05:28:25.717Z,3.51
2018-01-14T05:29:25.564Z,3.49
2018-01-14T05:30:25.546Z,3.48
2018-01-14T05:31:25.525Z,3.45
2018-01-14T05:32:25.539Z,3.44
2018-01-14T05:33:25.669Z,3.43
2018-01-14T05:34:25.705Z,3.41
2018-01-14T05:35:25.391Z,3.43
2018-01-14T05:36:25.443Z,3.42
2018-01-14T05:37:25.604Z,3.39
2018-01-14T05:38:25.700Z,3.39
2018-01-14T05:39:25.587Z,3.39
2018-01-14T05:40:25.626Z,3.38
2018-01-14T05:41:25.671Z,3.36
2018-01-14T05:42:25.684Z,3.36
2018-01-14T05:43:25.643Z,3.37
2018-01-14T05:44:25.496Z,3.37
2018-01-14T05:45:25.602Z,3.37
2018-01-14T05:46:25.580Z,3.37
2018-01-14T05:47:25.506Z,3.34
2018-01-14T05:48:25.541Z,3.35
2018-01-14T05:49:25.650Z,3.36
2018-01-14T05:50:25.681Z,3.37
2018-01-14T05:51:25.636Z,3.36
2018-01-14T05:52:25.580Z,3.34
2018-01-14T05:53:25.819Z,3.34
2018-01-14T05:54:25.432Z,3.33
2018-01-14T05:55:25.509Z,3.33
2018-01-14T05:56:25.827Z,3.36
2018-01-14T05:57:25.479Z,3.35
2018-01-14T05:58:25.518Z,3.33
2018-01-14T05:59:25.818Z,3.35
2018-01-14T06:00:25.582Z,3.37
2018-01-14T06:01:25.555Z,3.35
2018-01-14T06:02:26.072Z,3.39
2018-01-14T06:03:25.531Z,3.39
2018-01-14T06:04:25.456Z,3.37
2018-01-14T06:05:25.905Z,3.38
2018-01-14T06:06:25.589Z,3.39
2018-01-14T06:07:25.432Z,3.38
2018-01-14T06:08:25.766Z,3.36
2018-01-14T06:09:25.507Z,3.36
2018-01-14T06:10:25.533Z,3.38
2018-01-14T06:11:25.619Z,3.38
2018-01-14T06:12:25.547Z,3.38
2018-01-14T06:13:25.722Z,3.42
2018-01-14T06:14:25.556Z,3.39
2018-01-14T06:15:25.704Z,3.39
2018-01-14T06:16:25.513Z,3.38
2018-01-14T06:17:25.506Z,3.37
2018-01-14T06:18:25.784Z,3.39
2018-01-14T06:19:25.651Z,3.38
2018-01-14T06:20:25.555Z,3.41
2018-01-14T06:21:25.676Z,3.41
2018-01-14T06:22:26.374Z,3.42
2018-01-14T06:23:25.642Z,3.38
2018-01-14T06:24:25.681Z,3.42
2018-01-14T06:25:25.718Z,3.41
2018-01-14T06:26:25.634Z,3.44
2018-01-14T06:27:25.692Z,3.44
2018-01-14T06:28:25.751Z,3.43
2018-01-14T06:29:25.867Z,3.38
2018-01-14T06:30:25.501Z,3.38
2018-01-14T06:31:25.656Z,3.39
2018-01-14T06:32:25.725Z,3.35
2018-01-14T06:33:25.539Z,3.37
2018-01-14T06:34:25.472Z,3.37
2018-01-14T06:35:25.726Z,3.38
2018-01-14T06:36:25.509Z,3.38
2018-01-14T06:37:25.695Z,3.35
2018-01-14T06:38:25.740Z,3.36
2018-01-14T06:39:25.716Z,3.4
2018-01-14T06:40:25.489Z,3.43
2018-01-14T06:41:25.490Z,3.45
2018-01-14T06:42:25.758Z,3.44
2018-01-14T06:43:26.246Z,3.45
2018-01-14T06:44:25.705Z,3.41
2018-01-14T06:45:25.647Z,3.43
2018-01-14T06:46:25.675Z,3.43
2018-01-14T06:47:25.751Z,3.41
2018-01-14T06:48:25.630Z,3.43
2018-01-14T06:49:25.668Z,3.44
2018-01-14T06:50:25.783Z,3.48
2018-01-14T06:51:25.820Z,3.48
2018-01-14T06:52:25.766Z,3.48
2018-01-14T06:53:25.601Z,3.45
2018-01-14T06:54:25.615Z,3.5
2018-01-14T06:55:25.534Z,3.45
2018-01-14T06:56:25.623Z,3.45
2018-01-14T06:57:25.643Z,3.44
2018-01-14T06:58:25.611Z,3.43
2018-01-14T06:59:25.768Z,3.42
2018-01-14T07:00:25.838Z,3.39
2018-01-14T07:01:25.894Z,3.4
2018-01-14T07:02:25.680Z,3.39
2018-01-14T07:03:25.723Z,3.38
2018-01-14T07:04:25.601Z,3.38
2018-01-14T07:05:25.750Z,3.41
2018-01-14T07:06:25.782Z,3.43
2018-01-14T07:07:25.767Z,3.43
2018-01-14T07:08:25.682Z,3.39
2018-01-14T07:09:25.663Z,3.39
2018-01-14T07:10:25.797Z,3.38
2018-01-14T07:11:25.908Z,3.39
2018-01-14T07:12:25.829Z,3.39
2018-01-14T07:13:25.789Z,3.39
2018-01-14T07:14:25.618Z,3.41
2018-01-14T07:15:25.995Z,3.38
2018-01-14T07:16:25.913Z,3.39
2018-01-14T07:17:25.907Z,3.41
2018-01-14T07:18:25.911Z,3.38
2018-01-14T07:19:25.994Z,3.39
2018-01-14T07:20:25.733Z,3.36
2018-01-14T07:21:25.727Z,3.33
2018-01-14T07:22:25.787Z,3.36
2018-01-14T07:23:25.740Z,3.33
2018-01-14T07:24:25.836Z,3.33
2018-01-14T07:25:26.250Z,3.31
2018-01-14T07:26:25.712Z,3.35
2018-01-14T07:27:25.885Z,3.33
2018-01-14T07:28:25.942Z,3.32
2018-01-14T07:29:25.882Z,3.34
2018-01-14T07:30:25.629Z,3.33
2018-01-14T07:31:25.941Z,3.31
2018-01-14T07:32:25.716Z,3.33
2018-01-14T07:33:25.870Z,3.32
2018-01-14T07:34:25.962Z,3.3
2018-01-14T07:35:25.901Z,3.33
2018-01-14T07:36:25.702Z,3.32
2018-01-14T07:37:25.789Z,3.32
2018-01-14T07:38:26.023Z,3.33
2018-01-14T07:39:25.968Z,3.33
2018-01-14T07:40:25.831Z,3.33
2018-01-14T07:41:25.660Z,3.33
2018-01-14T07:42:25.931Z,3.39
2018-01-14T07:43:25.915Z,3.37
2018-01-14T07:44:25.662Z,3.37
2018-01-14T07:45:25.992Z,3.34
2018-01-14T07:46:26.066Z,3.33
2018-01-14T07:47:25.949Z,3.35
2018-01-14T07:48:25.953Z,3.34
2018-01-14T07:49:25.967Z,3.31
2018-01-14T07:50:25.886Z,3.32
2018-01-14T07:51:25.761Z,3.3
2018-01-14T07:52:26.208Z,3.31
2018-01-14T07:53:25.764Z,3.28
2018-01-14T07:54:26.131Z,3.26
2018-01-14T07:55:25.947Z,3.25
2018-01-14T07:56:25.940Z,3.25
2018-01-14T07:57:25.905Z,3.27
2018-01-14T07:58:26.331Z,3.21
2018-01-14T07:59:26.159Z,3.2
2018-01-14T08:00:26.072Z,3.2
2018-01-14T08:01:25.858Z,3.19
2018-01-14T08:02:25.939Z,3.22
2018-01-14T08:03:25.898Z,3.25
2018-01-14T08:04:25.810Z,3.23
2018-01-14T08:05:26.030Z,3.24
2018-01-14T08:06:25.930Z,3.25
2018-01-14T08:07:26.032Z,3.26
2018-01-14T08:08:26.244Z,3.28
2018-01-14T08:09:25.867Z,3.26
2018-01-14T08:10:25.899Z,3.29
2018-01-14T08:11:25.977Z,3.29
2018-01-14T08:12:25.920Z,3.3
2018-01-14T08:13:25.888Z,3.32
2018-01-14T08:14:26.075Z,3.36
2018-01-14T08:15:26.085Z,3.31
2018-01-14T08:16:24.991Z,3.33
2018-01-14T08:17:25.050Z,3.32
2018-01-14T08:18:25.125Z,3.32
2018-01-14T08:19:25.236Z,3.33
2018-01-14T08:20:25.486Z,3.26
2018-01-14T08:21:25.280Z,3.3
2018-01-14T08:22:25.046Z,3.29
2018-01-14T08:23:25.013Z,3.3
2018-01-14T08:24:25.327Z,3.3
2018-01-14T08:25:25.128Z,3.31
2018-01-14T08:26:24.847Z,3.28
2018-01-14T08:27:25.160Z,3.29
2018-01-14T08:28:24.856Z,3.26
2018-01-14T08:29:25.129Z,3.28
2018-01-14T08:30:24.889Z,3.26
2018-01-14T08:31:25.026Z,3.28
2018-01-14T08:32:25.048Z,3.33
2018-01-14T08:33:25.045Z,3.31
2018-01-14T08:34:24.804Z,3.32
2018-01-14T08:35:25.195Z,3.31
2018-01-14T08:36:25.675Z,3.32
2018-01-14T08:37:24.916Z,3.3
2018-01-14T08:38:24.807Z,3.34
2018-01-14T08:39:24.992Z,3.33
2018-01-14T08:40:24.971Z,3.38
2018-01-14T08:41:24.915Z,3.37
2018-01-14T08:42:25.038Z,3.34
2018-01-14T08:43:24.942Z,3.34
2018-01-14T08:44:24.849Z,3.37
2018-01-14T08:45:24.993Z,3.38
2018-01-14T08:46:25.013Z,3.39
2018-01-14T08:47:25.178Z,3.38
2018-01-14T08:48:24.979Z,3.38
2018-01-14T08:49:25.044Z,3.37
2018-01-14T08:50:25.233Z,3.35
2018-01-14T08:51:24.920Z,3.38
2018-01-14T08:52:25.247Z,3.35
2018-01-14T08:53:25.078Z,3.33
2018-01-14T08:54:25.227Z,3.38
2018-01-14T08:55:24.945Z,3.37
2018-01-14T08:56:24.920Z,3.38
2018-01-14T08:57:25.078Z,3.4
2018-01-14T08:58:25.556Z,3.39
2018-01-14T08:59:25.154Z,3.39
2018-01-14T09:00:25.030Z,3.39
2018-01-14T09:01:25.068Z,3.43
2018-01-14T09:02:25.146Z,3.42
2018-01-14T09:03:24.991Z,3.46
2018-01-14T09:04:24.954Z,3.48
2018-01-14T09:05:25.071Z,3.45
2018-01-14T09:06:25.016Z,3.46
2018-01-14T09:07:25.103Z,3.46
2018-01-14T09:08:24.962Z,3.46
2018-01-14T09:09:24.978Z,3.45
2018-01-14T09:10:25.063Z,3.48
2018-01-14T09:11:25.334Z,3.47
2018-01-14T09:12:25.259Z,3.45
2018-01-14T09:13:25.054Z,3.5
2018-01-14T09:14:24.965Z,3.48
2018-01-14T09:15:25.302Z,3.45
2018-01-14T09:16:25.028Z,3.45
2018-01-14T09:17:25.136Z,3.46
2018-01-14T09:18:25.091Z,3.46
2018-01-14T09:19:25.140Z,3.5
2018-01-14T09:20:25.183Z,3.46
2018-01-14T09:21:24.973Z,3.49
2018-01-14T09:22:24.950Z,3.49
2018-01-14T09:23:25.210Z,3.51
2018-01-14T09:24:25.134Z,3.51
2018-01-14T09:25:25.103Z,3.5
2018-01-14T09:26:25.168Z,3.5
2018-01-14T09:27:25.177Z,3.51
2018-01-14T09:28:25.167Z,3.51
2018-01-14T09:29:25.161Z,3.52
2018-01-14T09:30:25.161Z,3.53
2018-01-14T09:31:25.081Z,3.55
2018-01-14T09:32:25.401Z,3.56
2018-01-14T09:33:24.954Z,3.58
2018-01-14T09:34:25.325Z,3.57
2018-01-14T09:35:24.945Z,3.58
2018-01-14T09:36:25.223Z,3.57
2018-01-14T09:37:24.958Z,3.58
2018-01-14T09:38:25.561Z,3.6
2018-01-14T09:39:24.992Z,3.61
2018-01-14T09:40:25.343Z,3.63
2018-01-14T09:41:25.328Z,3.59
2018-01-14T09:42:25.067Z,3.56
2018-01-14T09:43:25.454Z,3.58
2018-01-14T09:44:25.125Z,3.57
2018-01-14T09:45:25.145Z,3.58
2018-01-14T09:46:25.257Z,3.59
2018-01-14T09:47:25.288Z,3.6
2018-01-14T09:48:25.237Z,3.62
2018-01-14T09:49:25.266Z,3.64
2018-01-14T09:50:25.004Z,3.64
2018-01-14T09:51:25.282Z,3.65
2018-01-14T09:52:25.080Z,3.66
2018-01-14T09:53:25.188Z,3.69
2018-01-14T09:54:25.114Z,3.71
2018-01-14T09:55:25.110Z,3.71
2018-01-14T09:56:25.335Z,3.7
2018-01-14T09:57:25.451Z,3.68
2018-01-14T09:58:25.205Z,3.71
2018-01-14T09:59:25.464Z,3.71
2018-01-14T10:00:25.338Z,3.72
2018-01-14T10:01:25.382Z,3.71
2018-01-14T10:02:25.079Z,3.7
2018-01-14T10:03:25.282Z,3.71
2018-01-14T10:04:25.347Z,3.71
2018-01-14T10:05:25.521Z,3.72
2018-01-14T10:06:25.198Z,3.76
2018-01-14T10:07:25.297Z,3.77
2018-01-14T10:08:25.294Z,3.78
2018-01-14T10:09:26.241Z,3.8
2018-01-14T10:10:25.425Z,3.8
2018-01-14T10:11:25.271Z,3.82
2018-01-14T10:12:25.241Z,3.81
2018-01-14T10:13:25.258Z,3.84
2018-01-14T10:14:25.359Z,3.84
2018-01-14T10:15:25.112Z,3.82
2018-01-14T10:16:25.304Z,3.79
2018-01-14T10:17:25.214Z,3.81
2018-01-14T10:18:25.024Z,3.81
2018-01-14T10:19:25.202Z,3.86
2018-01-14T10:20:25.346Z,3.84
2018-01-14T10:21:25.331Z,3.84
2018-01-14T10:22:25.015Z,3.84
2018-01-14T10:23:25.265Z,3.85
2018-01-14T10:24:25.132Z,3.85
2018-01-14T10:25:25.441Z,3.85
2018-01-14T10:26:26.048Z,3.88
2018-01-14T10:27:25.280Z,3.91
2018-01-14T10:28:25.135Z,3.89
2018-01-14T10:29:25.179Z,3.92
2018-01-14T10:30:25.105Z,3.96
2018-01-14T10:31:25.400Z,3.96
2018-01-14T10:32:25.264Z,3.96
2018-01-14T10:33:25.399Z,3.96
2018-01-14T10:34:25.242Z,3.96
2018-01-14T10:35:25.187Z,3.97
2018-01-14T10:36:25.280Z,4.01
2018-01-14T10:37:25.355Z,3.99
2018-01-14T10:38:25.729Z,3.99
2018-01-14T10:39:25.264Z,4.01
2018-01-14T10:40:25.391Z,4.02
2018-01-14T10:41:26.715Z,4.06
2018-01-14T10:42:28.853Z,4.07
2018-01-14T10:43:28.844Z,4.08
2018-01-14T10:44:25.360Z,4.08
2018-01-14T10:45:27.402Z,4.09
2018-01-14T10:46:26.109Z,4.11
2018-01-14T10:47:26.274Z,4.05
2018-01-14T10:48:29.131Z,4.09
2018-01-14T10:49:28.247Z,4.09
2018-01-14T10:50:28.767Z,4.07
2018-01-14T10:51:29.138Z,4.09
2018-01-14T10:52:28.095Z,4.11
2018-01-14T10:53:25.201Z,4.14
2018-01-14T10:54:25.209Z,4.14
2018-01-14T10:55:25.190Z,4.16
2018-01-14T10:56:25.313Z,4.19
2018-01-14T10:57:25.191Z,4.16
2018-01-14T10:58:29.613Z,4.2
2018-01-14T10:59:29.052Z,4.22
2018-01-14T11:00:28.231Z,4.23
2018-01-14T11:01:25.356Z,4.26
2018-01-14T11:02:25.281Z,4.25
2018-01-14T11:03:26.015Z,4.26
2018-01-14T11:04:25.163Z,4.29
2018-01-14T11:05:43.442Z,4.31
2018-01-14T11:06:29.172Z,4.27
2018-01-14T11:07:14.849Z,4.34
2018-01-14T11:08:20.600Z,4.33
2018-01-14T11:09:21.631Z,4.3
2018-01-14T11:10:14.469Z,4.31
2018-01-14T11:11:14.550Z,4.31
2018-01-14T11:12:16.471Z,4.33
2018-01-14T11:13:16.261Z,4.34
2018-01-14T11:14:14.710Z,4.34
2018-01-14T11:15:14.474Z,4.34
2018-01-14T11:16:14.598Z,4.34
2018-01-14T11:17:14.604Z,4.38
2018-01-14T11:18:14.780Z,4.34
2018-01-14T11:19:14.430Z,4.35
2018-01-14T11:20:14.739Z,4.35
2018-01-14T11:21:15.273Z,4.35
2018-01-14T11:22:14.480Z,4.37
2018-01-14T11:23:14.666Z,4.34
2018-01-14T11:24:14.900Z,4.36
2018-01-14T11:25:14.821Z,4.36
2018-01-14T11:26:14.740Z,4.4
2018-01-14T11:27:14.743Z,4.45
2018-01-14T11:28:14.810Z,4.41
2018-01-14T11:29:14.937Z,4.41
2018-01-14T11:30:14.647Z,4.42
2018-01-14T11:31:14.603Z,4.46
2018-01-14T11:32:14.753Z,4.45
2018-01-14T11:33:14.702Z,4.45
2018-01-14T11:34:14.723Z,4.46
2018-01-14T11:35:14.578Z,4.5
2018-01-14T11:36:14.791Z,4.5
2018-01-14T11:37:14.653Z,4.5
2018-01-14T11:38:14.672Z,4.5
2018-01-14T11:39:14.523Z,4.52
2018-01-14T11:40:14.660Z,4.5
2018-01-14T11:41:14.709Z,4.54
2018-01-14T11:42:14.714Z,4.57
2018-01-14T11:43:14.945Z,4.57
2018-01-14T11:44:14.880Z,4.6
2018-01-14T11:45:15.422Z,4.6
2018-01-14T11:46:14.443Z,4.6
2018-01-14T11:47:14.918Z,4.61
2018-01-14T11:48:14.652Z,4.63
2018-01-14T11:49:14.609Z,4.58
2018-01-14T11:50:14.876Z,4.62
2018-01-14T11:51:14.771Z,4.6
2018-01-14T11:52:14.785Z,4.58
2018-01-14T11:53:14.727Z,4.61
2018-01-14T11:54:14.760Z,4.64
2018-01-14T11:55:14.885Z,4.65
2018-01-14T11:56:14.946Z,4.68
2018-01-14T11:57:14.698Z,4.66
2018-01-14T11:58:15.320Z,4.67
2018-01-14T11:59:14.744Z,4.7
2018-01-14T12:00:14.801Z,4.7
2018-01-14T12:01:15.406Z,4.69
2018-01-14T12:02:14.839Z,4.69
2018-01-14T12:03:14.491Z,4.69
2018-01-14T12:04:14.519Z,4.69
2018-01-14T12:05:14.686Z,4.69
2018-01-14T12:06:14.545Z,4.67
2018-01-14T12:07:14.711Z,4.71
2018-01-14T12:08:14.791Z,4.69
2018-01-14T12:09:14.733Z,4.7
2018-01-14T12:10:14.838Z,4.69
2018-01-14T12:11:14.969Z,4.65
2018-01-14T12:12:14.599Z,4.65
2018-01-14T12:14:07.484Z,4.65
2018-01-14T12:15:07.565Z,4.61
2018-01-14T12:16:07.595Z,4.6
2018-01-14T12:17:07.222Z,4.63
2018-01-14T12:18:07.274Z,4.6
2018-01-14T12:19:07.411Z,4.6
2018-01-14T12:20:07.739Z,4.6
2018-01-14T12:21:07.371Z,4.61
2018-01-14T12:22:07.596Z,4.58
2018-01-14T12:23:07.040Z,4.6
2018-01-14T12:24:07.533Z,4.57
2018-01-14T12:25:07.207Z,4.57
2018-01-14T12:26:07.454Z,4.6
2018-01-14T12:27:07.422Z,4.59
2018-01-14T12:28:07.116Z,4.6
2018-01-14T12:29:07.545Z,4.6
2018-01-14T12:30:07.352Z,4.63
2018-01-14T12:31:07.640Z,4.61
2018-01-14T12:32:07.569Z,4.64
2018-01-14T12:33:07.774Z,4.65
2018-01-14T12:34:07.275Z,4.65
2018-01-14T12:35:06.428Z,4.7
2018-01-14T12:36:06.602Z,4.67
2018-01-14T12:37:06.607Z,4.69
2018-01-14T12:38:06.215Z,4.69
2018-01-14T12:39:06.415Z,4.7
2018-01-14T12:40:06.388Z,4.71
2018-01-14T12:41:06.280Z,4.74
2018-01-14T12:42:06.547Z,4.74
2018-01-14T12:43:06.464Z,4.75
2018-01-14T12:44:06.320Z,4.75
2018-01-14T12:45:06.336Z,4.75
2018-01-14T12:46:06.500Z,4.76
2018-01-14T12:47:06.215Z,4.79
2018-01-14T12:48:06.656Z,4.77
2018-01-14T12:49:06.457Z,4.74
2018-01-14T12:50:06.177Z,4.78
2018-01-14T12:51:06.373Z,4.78
2018-01-14T12:52:06.411Z,4.76
2018-01-14T12:53:06.398Z,4.78
2018-01-14T12:54:06.529Z,4.77
2018-01-14T12:55:06.428Z,4.75
2018-01-14T12:56:06.483Z,4.76
2018-01-14T12:57:06.328Z,4.76
2018-01-14T12:58:06.396Z,4.78
2018-01-14T12:59:06.431Z,4.78
2018-01-14T13:00:06.341Z,4.76
2018-01-14T13:01:06.504Z,4.75
2018-01-14T13:02:06.399Z,4.72
2018-01-14T13:03:06.332Z,4.74
2018-01-14T13:04:06.367Z,4.71
2018-01-14T13:05:06.548Z,4.71
2018-01-14T13:06:06.642Z,4.72
2018-01-14T13:07:06.361Z,4.73
2018-01-14T13:08:06.547Z,4.75
2018-01-14T13:09:06.632Z,4.76
2018-01-14T13:10:06.511Z,4.76
2018-01-14T13:11:06.319Z,4.78
2018-01-14T13:12:06.446Z,4.78
2018-01-14T13:13:06.430Z,4.79
2018-01-14T13:14:06.490Z,4.77
2018-01-14T13:15:06.349Z,4.78
2018-01-14T13:16:06.345Z,4.77
2018-01-14T13:17:06.313Z,4.81
2018-01-14T13:18:26.743Z,4.8
2018-01-14T13:19:10.926Z,4.78
2018-01-14T13:20:06.444Z,4.79
2018-01-14T13:21:06.467Z,4.78
2018-01-14T13:22:06.310Z,4.8
2018-01-14T13:23:06.574Z,4.82
2018-01-14T13:24:06.682Z,4.82